Terminal Aerodrome Forecast
Issued by NWS Cleveland, OH

Home | Current Version | Previous Version | Graphics & Text | Print | Product List | Glossary On
Versions: 1 2 3 4 5 6 7 8 9 10 11 12 13 14 15 16 17 18 19 20 21
000
FTUS41 KCLE 271800 AAA
TAFCAK
TAF AMD
KCAK 271854Z 2719/2818 22010KT P6SM BKN020 BKN040
      TEMPO 2719/2723 2SM TSRA OVC020CB
     FM272300 27010KT P6SM BKN040 OVC100
      TEMPO 2723/2802 5SM -SHRA BR OVC040
     FM280300 29006KT P6SM SCT060 BKN100
     FM280900 29006KT 5SM BR SCT005 OVC150
     FM281200 31010KT 5SM BR OVC005
     FM281600 33012G20KT P6SM OVC015=

USA.gov is the U.S. government's official web portal to all federal, state and local government web resources and services.